sensor_id;sensor_type;location;lat;lon;timestamp;P1;durP1;ratioP1;P2;durP2;ratioP2
27684;SDS011;46113;50.130;8.526;2024-03-02T00:00:07;8.30;;;4.82;;
27684;SDS011;46113;50.130;8.526;2024-03-02T00:02:43;14.20;;;5.90;;
27684;SDS011;46113;50.130;8.526;2024-03-02T00:05:11;10.68;;;5.68;;
27684;SDS011;46113;50.130;8.526;2024-03-02T00:07:41;15.43;;;6.10;;
27684;SDS011;46113;50.130;8.526;2024-03-02T00:10:09;11.23;;;6.22;;
27684;SDS011;46113;50.130;8.526;2024-03-02T00:12:38;9.35;;;5.30;;
27684;SDS011;46113;50.130;8.526;2024-03-02T00:15:06;10.13;;;5.50;;
27684;SDS011;46113;50.130;8.526;2024-03-02T00:17:53;10.98;;;5.55;;
27684;SDS011;46113;50.130;8.526;2024-03-02T00:20:21;12.95;;;6.70;;
27684;SDS011;46113;50.130;8.526;2024-03-02T00:22:49;12.43;;;7.20;;
27684;SDS011;46113;50.130;8.526;2024-03-02T00:25:16;16.58;;;6.35;;
27684;SDS011;46113;50.130;8.526;2024-03-02T00:27:47;9.23;;;6.22;;
27684;SDS011;46113;50.130;8.526;2024-03-02T00:31:02;9.43;;;5.65;;
27684;SDS011;46113;50.130;8.526;2024-03-02T00:33:24;9.77;;;5.88;;
27684;SDS011;46113;50.130;8.526;2024-03-02T00:35:54;13.70;;;6.07;;
27684;SDS011;46113;50.130;8.526;2024-03-02T00:38:21;11.27;;;6.93;;
27684;SDS011;46113;50.130;8.526;2024-03-02T00:40:48;11.52;;;5.57;;
27684;SDS011;46113;50.130;8.526;2024-03-02T00:46:15;13.27;;;6.13;;
27684;SDS011;46113;50.130;8.526;2024-03-02T00:48:51;10.00;;;6.20;;
27684;SDS011;46113;50.130;8.526;2024-03-02T00:51:23;7.93;;;5.22;;
27684;SDS011;46113;50.130;8.526;2024-03-02T00:53:52;9.90;;;6.03;;
27684;SDS011;46113;50.130;8.526;2024-03-02T00:56:22;7.35;;;4.97;;
27684;SDS011;46113;50.130;8.526;2024-03-02T00:58:50;9.68;;;5.60;;
27684;SDS011;46113;50.130;8.526;2024-03-02T01:01:17;6.85;;;5.20;;
27684;SDS011;46113;50.130;8.526;2024-03-02T01:03:46;8.45;;;6.00;;
27684;SDS011;46113;50.130;8.526;2024-03-02T01:06:13;10.35;;;5.88;;
27684;SDS011;46113;50.130;8.526;2024-03-02T01:08:40;10.43;;;6.32;;
27684;SDS011;46113;50.130;8.526;2024-03-02T01:11:06;10.52;;;5.70;;
27684;SDS011;46113;50.130;8.526;2024-03-02T01:13:33;7.68;;;5.57;;
27684;SDS011;46113;50.130;8.526;2024-03-02T01:16:00;7.78;;;5.68;;
27684;SDS011;46113;50.130;8.526;2024-03-02T01:18:28;11.35;;;6.10;;
27684;SDS011;46113;50.130;8.526;2024-03-02T01:20:55;11.73;;;6.60;;
27684;SDS011;46113;50.130;8.526;2024-03-02T01:23:22;10.27;;;6.22;;
27684;SDS011;46113;50.130;8.526;2024-03-02T01:25:50;7.55;;;5.63;;
27684;SDS011;46113;50.130;8.526;2024-03-02T01:28:18;10.10;;;5.22;;
27684;SDS011;46113;50.130;8.526;2024-03-02T01:30:47;8.55;;;5.40;;
27684;SDS011;46113;50.130;8.526;2024-03-02T01:33:14;9.30;;;6.10;;
27684;SDS011;46113;50.130;8.526;2024-03-02T01:35:42;10.32;;;6.50;;
27684;SDS011;46113;50.130;8.526;2024-03-02T01:38:08;9.90;;;6.15;;
27684;SDS011;46113;50.130;8.526;2024-03-02T01:40:36;7.95;;;5.55;;
27684;SDS011;46113;50.130;8.526;2024-03-02T01:43:03;8.35;;;5.28;;
27684;SDS011;46113;50.130;8.526;2024-03-02T01:45:31;10.15;;;6.30;;
27684;SDS011;46113;50.130;8.526;2024-03-02T01:47:58;13.43;;;7.13;;
27684;SDS011;46113;50.130;8.526;2024-03-02T01:50:26;12.68;;;6.97;;
27684;SDS011;46113;50.130;8.526;2024-03-02T01:52:55;10.27;;;6.38;;
27684;SDS011;46113;50.130;8.526;2024-03-02T01:55:22;13.75;;;7.40;;
27684;SDS011;46113;50.130;8.526;2024-03-02T01:57:49;11.95;;;6.75;;
27684;SDS011;46113;50.130;8.526;2024-03-02T02:00:21;11.80;;;6.70;;
27684;SDS011;46113;50.130;8.526;2024-03-02T02:02:48;12.10;;;6.72;;
27684;SDS011;46113;50.130;8.526;2024-03-02T02:05:15;12.65;;;6.57;;
27684;SDS011;46113;50.130;8.526;2024-03-02T02:07:42;11.32;;;6.35;;
27684;SDS011;46113;50.130;8.526;2024-03-02T02:10:12;8.90;;;6.50;;
27684;SDS011;46113;50.130;8.526;2024-03-02T02:12:39;13.43;;;7.00;;
27684;SDS011;46113;50.130;8.526;2024-03-02T02:17:56;13.27;;;7.25;;
27684;SDS011;46113;50.130;8.526;2024-03-02T02:20:25;9.25;;;5.70;;
27684;SDS011;46113;50.130;8.526;2024-03-02T02:25:28;15.05;;;8.55;;
27684;SDS011;46113;50.130;8.526;2024-03-02T02:27:56;14.23;;;7.80;;
27684;SDS011;46113;50.130;8.526;2024-03-02T02:30:25;12.68;;;7.60;;
27684;SDS011;46113;50.130;8.526;2024-03-02T02:32:53;14.98;;;7.85;;
27684;SDS011;46113;50.130;8.526;2024-03-02T02:35:20;13.55;;;8.88;;
27684;SDS011;46113;50.130;8.526;2024-03-02T02:37:47;16.45;;;8.65;;
27684;SDS011;46113;50.130;8.526;2024-03-02T02:40:15;12.55;;;7.90;;
27684;SDS011;46113;50.130;8.526;2024-03-02T02:42:42;14.02;;;6.30;;
27684;SDS011;46113;50.130;8.526;2024-03-02T02:45:09;17.70;;;7.82;;
27684;SDS011;46113;50.130;8.526;2024-03-02T02:47:38;13.45;;;7.75;;
27684;SDS011;46113;50.130;8.526;2024-03-02T02:50:06;17.17;;;7.70;;
27684;SDS011;46113;50.130;8.526;2024-03-02T02:52:34;11.95;;;6.90;;
27684;SDS011;46113;50.130;8.526;2024-03-02T02:55:03;13.80;;;7.45;;
27684;SDS011;46113;50.130;8.526;2024-03-02T02:57:34;14.30;;;8.48;;
27684;SDS011;46113;50.130;8.526;2024-03-02T03:00:06;17.85;;;7.90;;
27684;SDS011;46113;50.130;8.526;2024-03-02T03:02:41;12.35;;;7.15;;
27684;SDS011;46113;50.130;8.526;2024-03-02T03:05:08;17.40;;;8.00;;
27684;SDS011;46113;50.130;8.526;2024-03-02T03:07:37;14.80;;;8.45;;
27684;SDS011;46113;50.130;8.526;2024-03-02T03:10:06;15.50;;;8.00;;
27684;SDS011;46113;50.130;8.526;2024-03-02T03:12:34;11.70;;;7.00;;
27684;SDS011;46113;50.130;8.526;2024-03-02T03:15:02;14.18;;;8.35;;
27684;SDS011;46113;50.130;8.526;2024-03-02T03:17:31;15.80;;;8.07;;
27684;SDS011;46113;50.130;8.526;2024-03-02T03:19:58;12.63;;;7.07;;
27684;SDS011;46113;50.130;8.526;2024-03-02T03:22:24;13.75;;;7.13;;
27684;SDS011;46113;50.130;8.526;2024-03-02T03:24:51;14.95;;;7.88;;
27684;SDS011;46113;50.130;8.526;2024-03-02T03:27:18;13.23;;;6.78;;
27684;SDS011;46113;50.130;8.526;2024-03-02T03:29:46;11.90;;;6.72;;
27684;SDS011;46113;50.130;8.526;2024-03-02T03:32:13;11.85;;;7.30;;
27684;SDS011;46113;50.130;8.526;2024-03-02T03:34:40;14.00;;;7.35;;
27684;SDS011;46113;50.130;8.526;2024-03-02T03:37:07;13.70;;;7.28;;
27684;SDS011;46113;50.130;8.526;2024-03-02T03:39:34;12.93;;;6.97;;
27684;SDS011;46113;50.130;8.526;2024-03-02T03:42:03;15.80;;;7.57;;
27684;SDS011;46113;50.130;8.526;2024-03-02T03:44:30;19.30;;;7.72;;
27684;SDS011;46113;50.130;8.526;2024-03-02T03:46:56;11.43;;;6.95;;
27684;SDS011;46113;50.130;8.526;2024-03-02T03:49:23;11.73;;;6.88;;
27684;SDS011;46113;50.130;8.526;2024-03-02T03:51:50;14.85;;;7.22;;
27684;SDS011;46113;50.130;8.526;2024-03-02T03:54:17;12.48;;;7.35;;
27684;SDS011;46113;50.130;8.526;2024-03-02T03:56:43;14.63;;;7.95;;
27684;SDS011;46113;50.130;8.526;2024-03-02T03:59:10;17.58;;;8.35;;
27684;SDS011;46113;50.130;8.526;2024-03-02T04:01:37;12.68;;;7.18;;
27684;SDS011;46113;50.130;8.526;2024-03-02T04:04:04;10.30;;;6.30;;
27684;SDS011;46113;50.130;8.526;2024-03-02T04:06:31;12.95;;;7.03;;
27684;SDS011;46113;50.130;8.526;2024-03-02T04:08:58;15.75;;;7.40;;
27684;SDS011;46113;50.130;8.526;2024-03-02T04:11:25;14.02;;;7.70;;
27684;SDS011;46113;50.130;8.526;2024-03-02T04:13:52;12.70;;;8.45;;
27684;SDS011;46113;50.130;8.526;2024-03-02T04:16:21;16.08;;;7.55;;
27684;SDS011;46113;50.130;8.526;2024-03-02T04:18:48;15.75;;;6.72;;
27684;SDS011;46113;50.130;8.526;2024-03-02T04:21:14;14.95;;;8.27;;
27684;SDS011;46113;50.130;8.526;2024-03-02T04:23:41;15.95;;;7.75;;
27684;SDS011;46113;50.130;8.526;2024-03-02T04:26:08;14.05;;;6.82;;
27684;SDS011;46113;50.130;8.526;2024-03-02T04:28:35;11.23;;;7.15;;
27684;SDS011;46113;50.130;8.526;2024-03-02T04:31:02;12.68;;;7.28;;
27684;SDS011;46113;50.130;8.526;2024-03-02T04:33:28;14.13;;;7.25;;
27684;SDS011;46113;50.130;8.526;2024-03-02T04:35:55;13.60;;;7.38;;
27684;SDS011;46113;50.130;8.526;2024-03-02T04:38:22;14.98;;;7.57;;
27684;SDS011;46113;50.130;8.526;2024-03-02T04:40:49;16.13;;;7.90;;
27684;SDS011;46113;50.130;8.526;2024-03-02T04:43:15;11.65;;;7.13;;
27684;SDS011;46113;50.130;8.526;2024-03-02T04:45:42;12.48;;;7.38;;
27684;SDS011;46113;50.130;8.526;2024-03-02T04:48:09;18.35;;;7.70;;
27684;SDS011;46113;50.130;8.526;2024-03-02T04:50:36;11.82;;;6.45;;
27684;SDS011;46113;50.130;8.526;2024-03-02T04:53:03;10.77;;;6.35;;
27684;SDS011;46113;50.130;8.526;2024-03-02T04:55:30;10.50;;;7.13;;
27684;SDS011;46113;50.130;8.526;2024-03-02T04:58:02;12.60;;;6.43;;
27684;SDS011;46113;50.130;8.526;2024-03-02T05:00:29;12.23;;;7.28;;
27684;SDS011;46113;50.130;8.526;2024-03-02T05:02:56;11.45;;;7.00;;
27684;SDS011;46113;50.130;8.526;2024-03-02T05:05:22;13.50;;;7.25;;
27684;SDS011;46113;50.130;8.526;2024-03-02T05:07:49;12.60;;;7.10;;
27684;SDS011;46113;50.130;8.526;2024-03-02T05:10:16;13.32;;;6.65;;
27684;SDS011;46113;50.130;8.526;2024-03-02T05:12:42;16.48;;;6.63;;
27684;SDS011;46113;50.130;8.526;2024-03-02T05:15:10;10.32;;;6.40;;
27684;SDS011;46113;50.130;8.526;2024-03-02T05:17:39;15.68;;;6.97;;
27684;SDS011;46113;50.130;8.526;2024-03-02T05:20:07;15.55;;;7.28;;
27684;SDS011;46113;50.130;8.526;2024-03-02T05:22:34;10.77;;;6.50;;
27684;SDS011;46113;50.130;8.526;2024-03-02T05:25:02;15.05;;;7.03;;
27684;SDS011;46113;50.130;8.526;2024-03-02T05:27:29;12.15;;;7.55;;
27684;SDS011;46113;50.130;8.526;2024-03-02T05:29:56;15.18;;;7.50;;
27684;SDS011;46113;50.130;8.526;2024-03-02T05:32:24;11.63;;;6.60;;
27684;SDS011;46113;50.130;8.526;2024-03-02T05:34:51;15.40;;;7.97;;
27684;SDS011;46113;50.130;8.526;2024-03-02T05:37:17;13.35;;;8.35;;
27684;SDS011;46113;50.130;8.526;2024-03-02T05:39:44;12.32;;;7.80;;
27684;SDS011;46113;50.130;8.526;2024-03-02T05:42:11;16.95;;;8.82;;
27684;SDS011;46113;50.130;8.526;2024-03-02T05:44:38;13.35;;;7.35;;
27684;SDS011;46113;50.130;8.526;2024-03-02T05:47:04;12.55;;;7.75;;
27684;SDS011;46113;50.130;8.526;2024-03-02T05:49:34;21.02;;;8.40;;
27684;SDS011;46113;50.130;8.526;2024-03-02T05:52:01;16.65;;;8.68;;
27684;SDS011;46113;50.130;8.526;2024-03-02T05:54:27;15.20;;;7.88;;
27684;SDS011;46113;50.130;8.526;2024-03-02T05:56:55;16.35;;;9.10;;
27684;SDS011;46113;50.130;8.526;2024-03-02T05:59:21;15.80;;;9.07;;
27684;SDS011;46113;50.130;8.526;2024-03-02T06:01:48;17.50;;;9.73;;
27684;SDS011;46113;50.130;8.526;2024-03-02T06:04:18;18.38;;;9.32;;
27684;SDS011;46113;50.130;8.526;2024-03-02T06:06:45;12.88;;;7.78;;
27684;SDS011;46113;50.130;8.526;2024-03-02T06:09:12;15.90;;;8.95;;
27684;SDS011;46113;50.130;8.526;2024-03-02T06:11:39;14.70;;;8.23;;
27684;SDS011;46113;50.130;8.526;2024-03-02T06:14:08;16.50;;;8.65;;
27684;SDS011;46113;50.130;8.526;2024-03-02T06:16:35;15.70;;;8.98;;
27684;SDS011;46113;50.130;8.526;2024-03-02T06:19:02;14.55;;;8.48;;
27684;SDS011;46113;50.130;8.526;2024-03-02T06:21:29;16.80;;;9.13;;
27684;SDS011;46113;50.130;8.526;2024-03-02T06:23:56;16.52;;;9.63;;
27684;SDS011;46113;50.130;8.526;2024-03-02T06:26:23;20.05;;;9.32;;
27684;SDS011;46113;50.130;8.526;2024-03-02T06:28:51;16.45;;;8.25;;
27684;SDS011;46113;50.130;8.526;2024-03-02T06:31:18;15.73;;;9.50;;
27684;SDS011;46113;50.130;8.526;2024-03-02T06:33:45;19.70;;;10.35;;
27684;SDS011;46113;50.130;8.526;2024-03-02T06:36:12;18.77;;;10.23;;
27684;SDS011;46113;50.130;8.526;2024-03-02T06:38:39;19.67;;;11.07;;
27684;SDS011;46113;50.130;8.526;2024-03-02T06:41:09;17.75;;;9.35;;
27684;SDS011;46113;50.130;8.526;2024-03-02T06:43:36;18.02;;;10.88;;
27684;SDS011;46113;50.130;8.526;2024-03-02T06:46:02;15.77;;;9.40;;
27684;SDS011;46113;50.130;8.526;2024-03-02T06:48:29;15.30;;;8.70;;
27684;SDS011;46113;50.130;8.526;2024-03-02T06:50:57;15.55;;;8.68;;
27684;SDS011;46113;50.130;8.526;2024-03-02T06:53:24;16.42;;;8.88;;
27684;SDS011;46113;50.130;8.526;2024-03-02T06:55:51;17.90;;;9.57;;
27684;SDS011;46113;50.130;8.526;2024-03-02T06:58:18;15.80;;;8.68;;
27684;SDS011;46113;50.130;8.526;2024-03-02T07:00:45;15.95;;;8.93;;
27684;SDS011;46113;50.130;8.526;2024-03-02T07:03:12;18.50;;;10.75;;
27684;SDS011;46113;50.130;8.526;2024-03-02T07:05:39;17.17;;;11.10;;
27684;SDS011;46113;50.130;8.526;2024-03-02T07:08:06;17.23;;;11.02;;
27684;SDS011;46113;50.130;8.526;2024-03-02T07:10:33;17.30;;;9.82;;
27684;SDS011;46113;50.130;8.526;2024-03-02T07:12:59;15.73;;;9.40;;
27684;SDS011;46113;50.130;8.526;2024-03-02T07:15:26;15.77;;;9.68;;
27684;SDS011;46113;50.130;8.526;2024-03-02T07:17:53;17.48;;;10.20;;
27684;SDS011;46113;50.130;8.526;2024-03-02T07:20:20;14.00;;;8.88;;
27684;SDS011;46113;50.130;8.526;2024-03-02T07:22:47;12.55;;;8.32;;
27684;SDS011;46113;50.130;8.526;2024-03-02T07:25:14;16.48;;;8.90;;
27684;SDS011;46113;50.130;8.526;2024-03-02T07:27:43;17.10;;;9.23;;
27684;SDS011;46113;50.130;8.526;2024-03-02T07:30:13;14.77;;;8.85;;
27684;SDS011;46113;50.130;8.526;2024-03-02T07:32:42;13.52;;;8.85;;
27684;SDS011;46113;50.130;8.526;2024-03-02T07:35:15;12.40;;;7.72;;
27684;SDS011;46113;50.130;8.526;2024-03-02T07:37:42;13.10;;;8.45;;
27684;SDS011;46113;50.130;8.526;2024-03-02T07:40:09;16.55;;;9.10;;
27684;SDS011;46113;50.130;8.526;2024-03-02T07:42:40;18.42;;;10.02;;
27684;SDS011;46113;50.130;8.526;2024-03-02T07:45:07;15.40;;;9.75;;
27684;SDS011;46113;50.130;8.526;2024-03-02T07:47:34;25.23;;;16.13;;
27684;SDS011;46113;50.130;8.526;2024-03-02T07:50:01;22.48;;;13.43;;
27684;SDS011;46113;50.130;8.526;2024-03-02T07:52:29;18.90;;;11.77;;
27684;SDS011;46113;50.130;8.526;2024-03-02T07:54:56;21.80;;;11.82;;
27684;SDS011;46113;50.130;8.526;2024-03-02T07:57:22;16.40;;;10.95;;
27684;SDS011;46113;50.130;8.526;2024-03-02T07:59:49;19.92;;;11.60;;
27684;SDS011;46113;50.130;8.526;2024-03-02T08:02:19;19.35;;;10.90;;
27684;SDS011;46113;50.130;8.526;2024-03-02T08:04:46;15.57;;;10.05;;
27684;SDS011;46113;50.130;8.526;2024-03-02T08:07:13;18.00;;;10.60;;
27684;SDS011;46113;50.130;8.526;2024-03-02T08:09:40;18.08;;;12.15;;
27684;SDS011;46113;50.130;8.526;2024-03-02T08:12:06;23.23;;;11.73;;
27684;SDS011;46113;50.130;8.526;2024-03-02T08:14:33;17.10;;;10.85;;
27684;SDS011;46113;50.130;8.526;2024-03-02T08:17:00;19.02;;;11.43;;
27684;SDS011;46113;50.130;8.526;2024-03-02T08:19:28;16.50;;;10.88;;
27684;SDS011;46113;50.130;8.526;2024-03-02T08:21:55;18.77;;;11.25;;
27684;SDS011;46113;50.130;8.526;2024-03-02T08:24:22;17.73;;;10.77;;
27684;SDS011;46113;50.130;8.526;2024-03-02T08:26:49;16.45;;;10.52;;
27684;SDS011;46113;50.130;8.526;2024-03-02T08:29:16;18.02;;;11.55;;
27684;SDS011;46113;50.130;8.526;2024-03-02T08:31:43;18.73;;;11.30;;
27684;SDS011;46113;50.130;8.526;2024-03-02T08:34:09;17.73;;;11.93;;
27684;SDS011;46113;50.130;8.526;2024-03-02T08:36:36;17.80;;;11.82;;
27684;SDS011;46113;50.130;8.526;2024-03-02T08:39:04;15.98;;;10.95;;
27684;SDS011;46113;50.130;8.526;2024-03-02T08:41:33;27.65;;;12.27;;
27684;SDS011;46113;50.130;8.526;2024-03-02T08:44:00;18.33;;;11.77;;
27684;SDS011;46113;50.130;8.526;2024-03-02T08:46:27;18.65;;;12.13;;
27684;SDS011;46113;50.130;8.526;2024-03-02T08:48:55;19.40;;;11.63;;
27684;SDS011;46113;50.130;8.526;2024-03-02T08:51:21;22.48;;;12.98;;
27684;SDS011;46113;50.130;8.526;2024-03-02T08:53:48;19.63;;;12.80;;
27684;SDS011;46113;50.130;8.526;2024-03-02T08:56:15;18.73;;;11.60;;
27684;SDS011;46113;50.130;8.526;2024-03-02T08:58:42;21.10;;;12.20;;
27684;SDS011;46113;50.130;8.526;2024-03-02T09:01:10;20.52;;;11.32;;
27684;SDS011;46113;50.130;8.526;2024-03-02T09:03:37;18.92;;;12.82;;
27684;SDS011;46113;50.130;8.526;2024-03-02T09:06:04;18.55;;;12.02;;
27684;SDS011;46113;50.130;8.526;2024-03-02T09:08:31;20.38;;;13.57;;
27684;SDS011;46113;50.130;8.526;2024-03-02T09:10:58;18.58;;;12.07;;
27684;SDS011;46113;50.130;8.526;2024-03-02T09:13:25;18.77;;;11.77;;
27684;SDS011;46113;50.130;8.526;2024-03-02T09:15:52;17.48;;;9.82;;
27684;SDS011;46113;50.130;8.526;2024-03-02T09:18:19;21.50;;;12.30;;
27684;SDS011;46113;50.130;8.526;2024-03-02T09:20:46;17.17;;;10.55;;
27684;SDS011;46113;50.130;8.526;2024-03-02T09:23:13;16.15;;;9.68;;
27684;SDS011;46113;50.130;8.526;2024-03-02T09:25:40;16.73;;;10.00;;
27684;SDS011;46113;50.130;8.526;2024-03-02T09:28:06;12.82;;;9.25;;
27684;SDS011;46113;50.130;8.526;2024-03-02T09:30:34;14.40;;;9.15;;
27684;SDS011;46113;50.130;8.526;2024-03-02T09:33:01;14.50;;;8.73;;
27684;SDS011;46113;50.130;8.526;2024-03-02T09:35:30;11.90;;;8.02;;
27684;SDS011;46113;50.130;8.526;2024-03-02T09:37:57;19.58;;;8.35;;
27684;SDS011;46113;50.130;8.526;2024-03-02T09:40:24;11.43;;;8.27;;
27684;SDS011;46113;50.130;8.526;2024-03-02T09:42:51;14.18;;;8.68;;
27684;SDS011;46113;50.130;8.526;2024-03-02T09:45:23;19.17;;;9.20;;
27684;SDS011;46113;50.130;8.526;2024-03-02T09:47:51;15.73;;;8.55;;
27684;SDS011;46113;50.130;8.526;2024-03-02T09:50:21;11.63;;;8.10;;
27684;SDS011;46113;50.130;8.526;2024-03-02T09:52:48;13.38;;;8.38;;
27684;SDS011;46113;50.130;8.526;2024-03-02T09:55:16;11.65;;;7.68;;
27684;SDS011;46113;50.130;8.526;2024-03-02T09:57:45;13.15;;;8.00;;
27684;SDS011;46113;50.130;8.526;2024-03-02T10:00:13;16.02;;;8.75;;
27684;SDS011;46113;50.130;8.526;2024-03-02T10:02:41;13.02;;;8.50;;
27684;SDS011;46113;50.130;8.526;2024-03-02T10:05:09;12.45;;;7.82;;
27684;SDS011;46113;50.130;8.526;2024-03-02T10:07:36;16.27;;;8.55;;
27684;SDS011;46113;50.130;8.526;2024-03-02T10:10:12;15.00;;;8.55;;
27684;SDS011;46113;50.130;8.526;2024-03-02T10:12:40;12.35;;;6.85;;
27684;SDS011;46113;50.130;8.526;2024-03-02T10:15:08;12.35;;;6.45;;
27684;SDS011;46113;50.130;8.526;2024-03-02T10:17:38;11.32;;;7.63;;
27684;SDS011;46113;50.130;8.526;2024-03-02T10:20:21;16.63;;;8.32;;
27684;SDS011;46113;50.130;8.526;2024-03-02T10:22:51;10.50;;;7.47;;
27684;SDS011;46113;50.130;8.526;2024-03-02T10:25:28;13.57;;;8.25;;
27684;SDS011;46113;50.130;8.526;2024-03-02T10:28:12;13.38;;;8.38;;
27684;SDS011;46113;50.130;8.526;2024-03-02T10:30:39;11.68;;;8.10;;
27684;SDS011;46113;50.130;8.526;2024-03-02T10:33:06;11.25;;;7.38;;
27684;SDS011;46113;50.130;8.526;2024-03-02T10:35:36;10.55;;;6.90;;
27684;SDS011;46113;50.130;8.526;2024-03-02T10:38:05;12.57;;;7.88;;
27684;SDS011;46113;50.130;8.526;2024-03-02T10:40:32;8.93;;;6.22;;
27684;SDS011;46113;50.130;8.526;2024-03-02T10:43:01;8.55;;;4.50;;
27684;SDS011;46113;50.130;8.526;2024-03-02T10:45:31;10.77;;;6.35;;
27684;SDS011;46113;50.130;8.526;2024-03-02T10:47:58;9.20;;;5.80;;
27684;SDS011;46113;50.130;8.526;2024-03-02T10:50:28;6.85;;;4.85;;
27684;SDS011;46113;50.130;8.526;2024-03-02T10:52:56;29.55;;;7.07;;
27684;SDS011;46113;50.130;8.526;2024-03-02T10:55:23;8.82;;;5.35;;
27684;SDS011;46113;50.130;8.526;2024-03-02T10:57:51;8.88;;;4.95;;
27684;SDS011;46113;50.130;8.526;2024-03-02T11:00:21;8.18;;;4.85;;
27684;SDS011;46113;50.130;8.526;2024-03-02T11:02:57;8.18;;;5.00;;
27684;SDS011;46113;50.130;8.526;2024-03-02T11:05:29;5.80;;;3.42;;
27684;SDS011;46113;50.130;8.526;2024-03-02T11:10:50;7.07;;;3.63;;
27684;SDS011;46113;50.130;8.526;2024-03-02T11:13:22;3.95;;;2.92;;
27684;SDS011;46113;50.130;8.526;2024-03-02T11:15:59;6.40;;;2.92;;
27684;SDS011;46113;50.130;8.526;2024-03-02T11:18:30;7.43;;;3.42;;
27684;SDS011;46113;50.130;8.526;2024-03-02T11:20:58;3.60;;;2.50;;
27684;SDS011;46113;50.130;8.526;2024-03-02T11:23:32;4.15;;;2.75;;
27684;SDS011;46113;50.130;8.526;2024-03-02T11:28:48;2.85;;;1.63;;
27684;SDS011;46113;50.130;8.526;2024-03-02T11:31:15;2.53;;;1.60;;
27684;SDS011;46113;50.130;8.526;2024-03-02T11:33:42;5.53;;;2.00;;
27684;SDS011;46113;50.130;8.526;2024-03-02T11:36:09;2.47;;;1.67;;
27684;SDS011;46113;50.130;8.526;2024-03-02T11:38:38;2.80;;;1.70;;
27684;SDS011;46113;50.130;8.526;2024-03-02T11:41:06;3.97;;;2.15;;
27684;SDS011;46113;50.130;8.526;2024-03-02T11:43:39;2.95;;;2.22;;
27684;SDS011;46113;50.130;8.526;2024-03-02T11:46:06;2.75;;;1.75;;
27684;SDS011;46113;50.130;8.526;2024-03-02T11:48:34;4.40;;;1.48;;
27684;SDS011;46113;50.130;8.526;2024-03-02T11:51:03;2.85;;;1.88;;
27684;SDS011;46113;50.130;8.526;2024-03-02T11:53:30;5.20;;;2.17;;
27684;SDS011;46113;50.130;8.526;2024-03-02T11:56:02;2.97;;;1.70;;
27684;SDS011;46113;50.130;8.526;2024-03-02T11:58:29;2.22;;;1.48;;
27684;SDS011;46113;50.130;8.526;2024-03-02T12:00:56;2.47;;;1.67;;
27684;SDS011;46113;50.130;8.526;2024-03-02T12:03:24;2.83;;;1.60;;
27684;SDS011;46113;50.130;8.526;2024-03-02T12:05:53;1.77;;;1.60;;
27684;SDS011;46113;50.130;8.526;2024-03-02T12:08:21;1.52;;;1.42;;
27684;SDS011;46113;50.130;8.526;2024-03-02T12:10:58;2.75;;;1.58;;
27684;SDS011;46113;50.130;8.526;2024-03-02T12:13:30;2.45;;;1.50;;
27684;SDS011;46113;50.130;8.526;2024-03-02T12:15:57;2.03;;;1.20;;
27684;SDS011;46113;50.130;8.526;2024-03-02T12:18:25;2.08;;;1.63;;
27684;SDS011;46113;50.130;8.526;2024-03-02T12:20:53;1.77;;;1.35;;
27684;SDS011;46113;50.130;8.526;2024-03-02T12:23:23;2.30;;;1.55;;
27684;SDS011;46113;50.130;8.526;2024-03-02T12:25:49;2.75;;;1.80;;
27684;SDS011;46113;50.130;8.526;2024-03-02T12:28:17;3.85;;;1.80;;
27684;SDS011;46113;50.130;8.526;2024-03-02T12:30:44;1.75;;;1.45;;
27684;SDS011;46113;50.130;8.526;2024-03-02T12:33:11;1.48;;;1.33;;
27684;SDS011;46113;50.130;8.526;2024-03-02T12:35:38;2.90;;;1.20;;
27684;SDS011;46113;50.130;8.526;2024-03-02T12:38:06;2.08;;;1.38;;
27684;SDS011;46113;50.130;8.526;2024-03-02T12:40:33;3.45;;;1.33;;
27684;SDS011;46113;50.130;8.526;2024-03-02T12:43:00;0.70;;;0.60;;
27684;SDS011;46113;50.130;8.526;2024-03-02T12:45:27;0.70;;;0.50;;
27684;SDS011;46113;50.130;8.526;2024-03-02T12:47:54;1.50;;;0.80;;
27684;SDS011;46113;50.130;8.526;2024-03-02T12:50:21;1.55;;;0.65;;
27684;SDS011;46113;50.130;8.526;2024-03-02T12:52:54;2.70;;;1.70;;
27684;SDS011;46113;50.130;8.526;2024-03-02T12:57:50;2.55;;;1.85;;
27684;SDS011;46113;50.130;8.526;2024-03-02T13:00:19;3.47;;;2.20;;
27684;SDS011;46113;50.130;8.526;2024-03-02T13:02:47;4.18;;;1.40;;
27684;SDS011;46113;50.130;8.526;2024-03-02T13:05:18;3.28;;;1.15;;
27684;SDS011;46113;50.130;8.526;2024-03-02T13:07:49;2.28;;;1.40;;
27684;SDS011;46113;50.130;8.526;2024-03-02T13:10:16;4.15;;;1.00;;
27684;SDS011;46113;50.130;8.526;2024-03-02T13:12:44;1.42;;;0.80;;
27684;SDS011;46113;50.130;8.526;2024-03-02T13:15:11;1.13;;;1.00;;
27684;SDS011;46113;50.130;8.526;2024-03-02T13:17:44;1.67;;;0.95;;
27684;SDS011;46113;50.130;8.526;2024-03-02T13:20:12;0.70;;;0.70;;
27684;SDS011;46113;50.130;8.526;2024-03-02T13:22:41;2.33;;;0.57;;
27684;SDS011;46113;50.130;8.526;2024-03-02T13:25:08;0.98;;;0.80;;
27684;SDS011;46113;50.130;8.526;2024-03-02T13:27:37;0.80;;;0.50;;
27684;SDS011;46113;50.130;8.526;2024-03-02T13:30:04;1.25;;;0.75;;
27684;SDS011;46113;50.130;8.526;2024-03-02T13:32:32;0.55;;;0.52;;
27684;SDS011;46113;50.130;8.526;2024-03-02T13:34:59;2.22;;;0.50;;
27684;SDS011;46113;50.130;8.526;2024-03-02T13:37:26;1.00;;;0.50;;
27684;SDS011;46113;50.130;8.526;2024-03-02T13:39:53;0.77;;;0.55;;
27684;SDS011;46113;50.130;8.526;2024-03-02T13:42:20;2.30;;;0.68;;
27684;SDS011;46113;50.130;8.526;2024-03-02T13:44:47;1.40;;;0.70;;
27684;SDS011;46113;50.130;8.526;2024-03-02T13:47:17;0.60;;;0.52;;
27684;SDS011;46113;50.130;8.526;2024-03-02T13:49:44;1.83;;;0.82;;
27684;SDS011;46113;50.130;8.526;2024-03-02T13:52:13;1.77;;;0.80;;
27684;SDS011;46113;50.130;8.526;2024-03-02T13:54:40;1.35;;;0.90;;
27684;SDS011;46113;50.130;8.526;2024-03-02T13:57:08;1.65;;;1.05;;
27684;SDS011;46113;50.130;8.526;2024-03-02T13:59:36;1.60;;;0.73;;
27684;SDS011;46113;50.130;8.526;2024-03-02T14:02:04;1.15;;;0.90;;
27684;SDS011;46113;50.130;8.526;2024-03-02T14:04:35;0.98;;;0.75;;
27684;SDS011;46113;50.130;8.526;2024-03-02T14:07:02;1.02;;;0.90;;
27684;SDS011;46113;50.130;8.526;2024-03-02T14:09:29;2.10;;;1.83;;
27684;SDS011;46113;50.130;8.526;2024-03-02T14:11:56;2.53;;;1.38;;
27684;SDS011;46113;50.130;8.526;2024-03-02T14:14:23;1.08;;;0.98;;
27684;SDS011;46113;50.130;8.526;2024-03-02T14:16:52;1.85;;;1.20;;
27684;SDS011;46113;50.130;8.526;2024-03-02T14:19:19;2.22;;;1.30;;
27684;SDS011;46113;50.130;8.526;2024-03-02T14:21:47;2.50;;;1.20;;
27684;SDS011;46113;50.130;8.526;2024-03-02T14:24:14;4.13;;;2.08;;
27684;SDS011;46113;50.130;8.526;2024-03-02T14:26:41;3.22;;;1.20;;
27684;SDS011;46113;50.130;8.526;2024-03-02T14:29:08;1.92;;;1.20;;
27684;SDS011;46113;50.130;8.526;2024-03-02T14:31:35;2.88;;;1.98;;
27684;SDS011;46113;50.130;8.526;2024-03-02T14:34:01;2.13;;;1.60;;
27684;SDS011;46113;50.130;8.526;2024-03-02T14:36:29;2.10;;;1.80;;
27684;SDS011;46113;50.130;8.526;2024-03-02T14:38:56;1.92;;;1.50;;
27684;SDS011;46113;50.130;8.526;2024-03-02T14:41:24;4.10;;;2.35;;
27684;SDS011;46113;50.130;8.526;2024-03-02T14:43:51;2.95;;;2.08;;
27684;SDS011;46113;50.130;8.526;2024-03-02T14:46:19;3.63;;;2.20;;
27684;SDS011;46113;50.130;8.526;2024-03-02T14:48:46;3.00;;;2.03;;
27684;SDS011;46113;50.130;8.526;2024-03-02T14:51:15;5.13;;;1.80;;
27684;SDS011;46113;50.130;8.526;2024-03-02T14:53:42;2.03;;;1.80;;
27684;SDS011;46113;50.130;8.526;2024-03-02T14:56:09;2.92;;;1.70;;
27684;SDS011;46113;50.130;8.526;2024-03-02T14:58:36;2.38;;;1.77;;